Terminal Aerodrome Forecast
Issued by NWS

Current Version | Previous Version | Text Only | Print | Product List | Glossary On
Versions: 1 2 3 4 5 6 7 8 9 10 11 12 13 14
000
FTUS43 KMQT 291100
TAFIWD
TAF
KIWD 291130Z 2912/3012 26005KT P6SM BKN100
     FM291800 33007KT P6SM VCSH BKN060
     FM300100 33005KT P6SM SCT060
     FM300700 00000KT 2SM BR SCT003
      AMD NOT SKED=

USA.gov is the U.S. government's official web portal to all federal, state and local government web resources and services.